Terminal Aerodrome Forecast
Issued by NWS

Home | Current Version | Previous Version | Text Only | Print | Product List | Glossary On
Versions: 1 2 3 4 5 6 7 8 9 10 11 12 13 14 15 16 17 18
729
FTUS43 KLSX 080536
TAFCPS
TAF
KCPS 080536Z 0806/0906 26009KT P6SM BKN070
     FM081100 29017G27KT P6SM -SHSN OVC030
     FM081900 31018G27KT P6SM OVC035
     FM082300 31018G26KT P6SM OVC030=

USA.gov is the U.S. government's official web portal to all federal, state and local government web resources and services.